Terminal Aerodrome Forecast
Issued by NWS Knoxville/Tri Cities, TN

Home | Current Version | Previous Version | Text Only | Print | Product List | Glossary On
Versions: 1 2 3 4 5 6 7 8 9 10 11 12 13 14 15 16 17 18 19 20 21 22 23 24 25 26 27 28 29 30
000
FTUS44 KMRX 301408 AAA
TAFTRI
TAF AMD
KTRI 301408Z 3014/3112 14008KT P6SM FEW080 SCT250
     FM301700 15009G16KT P6SM SCT080 SCT150
     FM302000 18012G20KT P6SM SCT050 BKN120
     FM310000 20012KT P6SM VCSH BKN050
     FM310300 17010KT 5SM -SHRA BR BKN040
      TEMPO 3105/3109 VRB15G25KT 3SM TSRA BR BKN025CB=

USA.gov is the U.S. government's official web portal to all federal, state and local government web resources and services.